createdAt,value
2022-09-20T00:01:14.165Z,100305.13
2022-09-20T00:04:16.490Z,100300.75
2022-09-20T00:07:18.628Z,100296.94
2022-09-20T00:10:23.187Z,100290.16
2022-09-20T00:13:25.324Z,100299.56
2022-09-20T00:16:29.099Z,100294.28
2022-09-20T00:19:31.270Z,100291.97
2022-09-20T00:22:33.687Z,100285.53
2022-09-20T00:25:35.737Z,100293.34
2022-09-20T00:28:38.123Z,100301.13
2022-09-20T00:31:42.788Z,100296.31
2022-09-20T00:35:04.106Z,100294.72
2022-09-20T00:38:06.175Z,100300.22
2022-09-20T00:41:08.991Z,100288.56
2022-09-20T00:44:29.584Z,100296.03
2022-09-20T00:47:31.895Z,100285.69
2022-09-20T00:50:38.051Z,100287.16
2022-09-20T00:53:43.214Z,100290.28
2022-09-20T00:56:45.273Z,100291.75
2022-09-20T00:59:49.212Z,100303.09
2022-09-20T01:02:55.144Z,100295.50
2022-09-20T01:05:58.987Z,100304.94
2022-09-20T01:09:03.077Z,100302.19
2022-09-20T01:12:06.882Z,100307.19
2022-09-20T01:15:09.568Z,100305.94
2022-09-20T01:18:13.263Z,100303.84
2022-09-20T01:21:15.771Z,100294.75
2022-09-20T01:24:17.995Z,100307.87
2022-09-20T01:27:40.274Z,100300.75
2022-09-20T01:31:01.229Z,100304.66
2022-09-20T01:34:03.228Z,100293.97
2022-09-20T01:37:16.558Z,100295.47
2022-09-20T01:40:28.875Z,100287.19
2022-09-20T01:43:40.384Z,100301.66
2022-09-20T01:46:43.929Z,100303.44
2022-09-20T01:50:04.758Z,100307.38
2022-09-20T01:53:06.832Z,100316.09
2022-09-20T01:56:30.219Z,100308.03
2022-09-20T01:59:32.507Z,100302.03
2022-09-20T02:02:35.087Z,100303.19
2022-09-20T02:05:53.028Z,100307.06
2022-09-20T02:08:57.903Z,100300.75
2022-09-20T02:12:19.641Z,100303.03
2022-09-20T02:15:27.621Z,100308.56
2022-09-20T02:18:45.292Z,100305.34
2022-09-20T02:21:54.025Z,100300.66
2022-09-20T02:25:05.514Z,100296.94
2022-09-20T02:28:26.133Z,100295.31
2022-09-20T02:31:40.952Z,100295.31
2022-09-20T02:34:49.347Z,100296.47
2022-09-20T02:37:57.634Z,100302.44
2022-09-20T02:41:18.607Z,100301.97
2022-09-20T02:44:33.070Z,100305.84
2022-09-20T02:47:43.503Z,100304.94
2022-09-20T02:50:49.797Z,100309.62
2022-09-20T02:54:07.249Z,100305.59
2022-09-20T02:57:28.417Z,100301.87
2022-09-20T03:00:38.377Z,100314.06
2022-09-20T03:04:01.397Z,100295.09
2022-09-20T03:07:10.670Z,100302.09
2022-09-20T03:10:13.016Z,100297.72
2022-09-20T03:13:15.022Z,100304.38
2022-09-20T03:16:17.362Z,100305.97
2022-09-20T03:19:37.823Z,100304.03
2022-09-20T03:22:43.179Z,100300.00
2022-09-20T03:25:51.454Z,100294.03
2022-09-20T03:28:53.743Z,100293.56
2022-09-20T03:32:01.616Z,100293.56
2022-09-20T03:35:16.452Z,100301.81
2022-09-20T03:38:31.227Z,100298.56
2022-09-20T03:41:41.141Z,100306.38
2022-09-20T03:44:52.497Z,100301.69
2022-09-20T03:48:22.232Z,100303.47
2022-09-20T03:51:45.384Z,100305.44
2022-09-20T03:54:50.924Z,100307.84
2022-09-20T03:57:55.998Z,100311.59
2022-09-20T04:01:28.012Z,100308.84
2022-09-20T04:04:30.487Z,100307.69
2022-09-20T04:07:32.644Z,100325.37
2022-09-20T04:10:55.104Z,100332.00
2022-09-20T04:14:16.593Z,100339.78
2022-09-20T04:17:25.173Z,100349.19
2022-09-20T04:20:38.930Z,100336.53
2022-09-20T04:23:51.500Z,100340.44
2022-09-20T04:27:01.249Z,100347.06
2022-09-20T04:30:07.029Z,100351.66
2022-09-20T04:33:15.083Z,100361.50
2022-09-20T04:36:30.418Z,100357.94
2022-09-20T04:39:36.065Z,100355.53
2022-09-20T04:42:59.755Z,100365.41
2022-09-20T04:46:09.981Z,100369.63
2022-09-20T04:49:21.480Z,100359.91
2022-09-20T04:52:39.334Z,100359.91
2022-09-20T04:56:10.078Z,100361.84
2022-09-20T04:59:38.748Z,100363.13
2022-09-20T05:02:50.686Z,100357.62
2022-09-20T05:05:56.351Z,100353.75
2022-09-20T05:09:14.199Z,100361.66
2022-09-20T05:12:58.660Z,100350.31
2022-09-20T05:16:04.396Z,100367.31
2022-09-20T05:19:12.242Z,100358.87
2022-09-20T05:22:19.191Z,100362.09
2022-09-20T05:25:27.253Z,100353.16
2022-09-20T05:28:49.732Z,100352.16
2022-09-20T05:31:54.963Z,100355.87
2022-09-20T05:35:04.765Z,100356.50
2022-09-20T05:38:19.071Z,100360.66
2022-09-20T05:41:39.295Z,100364.34
2022-09-20T05:44:47.567Z,100371.63
2022-09-20T05:48:08.616Z,100372.72
2022-09-20T05:51:23.871Z,100383.53
2022-09-20T05:54:45.953Z,100379.00
2022-09-20T05:58:05.691Z,100387.72
2022-09-20T06:01:32.045Z,100389.47
2022-09-20T06:04:57.450Z,100387.78
2022-09-20T06:08:03.807Z,100397.47
2022-09-20T06:11:10.672Z,100392.34
2022-09-20T06:14:27.666Z,100394.25
2022-09-20T06:17:37.783Z,100397.97
2022-09-20T06:21:20.351Z,100386.41
2022-09-20T06:24:37.657Z,100395.53
2022-09-20T06:27:47.465Z,100393.63
2022-09-20T06:31:02.718Z,100390.94
2022-09-20T06:34:13.309Z,100402.47
2022-09-20T06:37:40.414Z,100404.56
2022-09-20T06:41:07.104Z,100414.75
2022-09-20T06:44:09.678Z,100407.66
2022-09-20T06:47:14.599Z,100409.94
2022-09-20T06:50:17.497Z,100409.28
2022-09-20T06:53:23.710Z,100406.72
2022-09-20T06:56:28.277Z,100413.56
2022-09-20T06:59:32.254Z,100410.53
2022-09-20T07:02:37.125Z,100415.97
2022-09-20T07:05:39.483Z,100417.53
2022-09-20T07:08:43.424Z,100413.37
2022-09-20T07:11:46.339Z,100416.16
2022-09-20T07:14:50.583Z,100428.66
2022-09-20T07:17:53.058Z,100430.09
2022-09-20T07:20:58.888Z,100432.94
2022-09-20T07:24:02.142Z,100444.88
2022-09-20T07:27:05.502Z,100443.31
2022-09-20T07:30:08.194Z,100443.75
2022-09-20T07:33:17.238Z,100445.19
2022-09-20T07:36:19.498Z,100457.31
2022-09-20T07:39:27.900Z,100454.63
2022-09-20T07:42:30.231Z,100453.87
2022-09-20T07:45:34.240Z,100456.44
2022-09-20T07:48:36.918Z,100462.44
2022-09-20T07:51:39.420Z,100468.19
2022-09-20T07:54:41.680Z,100469.28
2022-09-20T07:57:44.197Z,100477.03
2022-09-20T08:00:51.239Z,100477.44
2022-09-20T08:03:54.846Z,100475.53
2022-09-20T08:06:58.642Z,100467.06
2022-09-20T08:10:00.896Z,100460.94
2022-09-20T08:16:27.120Z,100465.19
2022-09-20T08:19:30.486Z,100474.72
2022-09-20T08:22:32.982Z,100451.63
2022-09-20T08:25:35.245Z,100469.47
2022-09-20T08:28:38.484Z,100457.09
2022-09-20T08:31:42.468Z,100468.94
2022-09-20T08:34:49.200Z,100480.91
2022-09-20T08:37:55.233Z,100477.37
2022-09-20T08:40:59.831Z,100472.84
2022-09-20T08:44:10.746Z,100473.66
2022-09-20T08:47:13.258Z,100477.22
2022-09-20T08:50:18.391Z,100486.41
2022-09-20T08:53:21.736Z,100474.44
2022-09-20T08:56:26.511Z,100485.63
2022-09-20T08:59:29.449Z,100486.34
2022-09-20T09:02:32.445Z,100493.00
2022-09-20T09:05:36.523Z,100474.91
2022-09-20T09:08:44.659Z,100481.78
2022-09-20T09:11:49.264Z,100481.59
2022-09-20T09:14:55.271Z,100480.66
2022-09-20T09:17:58.094Z,100471.41
2022-09-20T09:21:04.310Z,100458.72
2022-09-20T09:24:17.030Z,100471.25
2022-09-20T09:27:19.776Z,100457.25
2022-09-20T09:30:26.660Z,100452.28
2022-09-20T09:33:34.977Z,100449.97
2022-09-20T09:36:44.151Z,100456.38
2022-09-20T09:39:47.097Z,100453.25
2022-09-20T09:42:57.278Z,100457.66
2022-09-20T09:46:29.539Z,100457.59
2022-09-20T09:49:36.239Z,100456.78
2022-09-20T09:52:38.691Z,100455.22
2022-09-20T09:55:59.814Z,100460.31
2022-09-20T09:59:23.104Z,100451.88
2022-09-20T10:02:44.297Z,100447.88
2022-09-20T10:05:55.808Z,100449.16
2022-09-20T10:09:03.819Z,100448.34
2022-09-20T10:12:26.301Z,100444.00
2022-09-20T10:15:31.710Z,100446.53
2022-09-20T10:18:33.987Z,100446.19
2022-09-20T10:21:39.074Z,100439.94
2022-09-20T10:25:10.341Z,100439.25
2022-09-20T10:28:28.101Z,100439.28
2022-09-20T10:31:36.903Z,100444.44
2022-09-20T10:34:39.357Z,100445.28
2022-09-20T10:38:14.553Z,100441.66
2022-09-20T10:42:13.771Z,100450.00
2022-09-20T10:45:44.326Z,100441.94
2022-09-20T10:48:52.982Z,100443.22
2022-09-20T10:52:13.933Z,100432.47
2022-09-20T10:55:20.412Z,100436.41
2022-09-20T10:58:56.479Z,100432.75
2022-09-20T11:02:17.217Z,100427.13
2022-09-20T11:05:22.489Z,100416.87
2022-09-20T11:08:26.986Z,100420.44
2022-09-20T11:11:32.873Z,100414.34
2022-09-20T11:14:38.945Z,100423.06
2022-09-20T11:17:49.841Z,100422.31
2022-09-20T11:20:55.362Z,100421.59
2022-09-20T11:23:58.221Z,100416.03
2022-09-20T11:27:06.896Z,100421.62
2022-09-20T11:30:21.591Z,100420.34
2022-09-20T11:33:31.753Z,100433.41
2022-09-20T11:36:42.853Z,100438.03
2022-09-20T11:39:50.369Z,100429.00
2022-09-20T11:42:53.416Z,100430.28
2022-09-20T11:46:00.142Z,100414.94
2022-09-20T11:49:11.645Z,100410.94
2022-09-20T11:52:26.215Z,100413.69
2022-09-20T11:55:48.279Z,100405.31
2022-09-20T11:58:55.967Z,100401.22
2022-09-20T12:02:01.798Z,100399.22
2022-09-20T12:05:06.027Z,100396.91
2022-09-20T12:08:19.448Z,100390.41
2022-09-20T12:11:31.084Z,100388.34
2022-09-20T12:14:42.300Z,100389.41
2022-09-20T12:17:51.371Z,100381.97
2022-09-20T12:20:56.431Z,100389.87
2022-09-20T12:23:58.816Z,100380.13
2022-09-20T12:27:07.264Z,100387.91
2022-09-20T12:30:19.647Z,100382.19
2022-09-20T12:33:22.219Z,100386.59
2022-09-20T12:36:25.528Z,100388.63
2022-09-20T12:39:30.240Z,100389.34
2022-09-20T12:42:33.446Z,100374.06
2022-09-20T12:45:36.991Z,100389.00
2022-09-20T12:48:41.803Z,100391.31
2022-09-20T12:52:09.738Z,100386.69
2022-09-20T12:55:13.278Z,100389.41
2022-09-20T12:58:22.940Z,100379.94
2022-09-20T13:01:25.333Z,100380.03
2022-09-20T13:04:40.354Z,100380.06
2022-09-20T13:07:48.014Z,100366.47
2022-09-20T13:11:02.371Z,100368.47
2022-09-20T13:14:10.417Z,100372.03
2022-09-20T13:17:13.613Z,100361.53
2022-09-20T13:20:28.046Z,100362.75
2022-09-20T13:23:32.145Z,100361.53
2022-09-20T13:26:39.603Z,100362.47
2022-09-20T13:29:43.029Z,100362.50
2022-09-20T13:32:45.637Z,100368.87
2022-09-20T13:35:48.433Z,100380.06
2022-09-20T13:38:51.061Z,100368.87
2022-09-20T13:41:53.251Z,100370.44
2022-09-20T13:44:57.171Z,100372.03
2022-09-20T13:48:00.138Z,100365.50
2022-09-20T13:51:02.623Z,100373.41
2022-09-20T13:54:24.305Z,100374.19
2022-09-20T13:57:30.914Z,100367.78
2022-09-20T14:00:57.789Z,100370.16
2022-09-20T14:04:18.694Z,100359.06
2022-09-20T14:07:21.241Z,100366.25
2022-09-20T14:10:28.179Z,100371.91
2022-09-20T14:13:33.496Z,100373.13
2022-09-20T14:16:39.595Z,100379.09
2022-09-20T14:19:42.552Z,100381.41
2022-09-20T14:22:47.126Z,100373.28
2022-09-20T14:26:07.903Z,100381.19
2022-09-20T14:29:30.335Z,100381.34
2022-09-20T14:32:32.333Z,100386.37
2022-09-20T14:35:34.706Z,100386.88
2022-09-20T14:38:37.994Z,100386.69
2022-09-20T14:41:43.753Z,100397.69
2022-09-20T14:44:50.190Z,100389.97
2022-09-20T14:47:57.007Z,100393.44
2022-09-20T14:51:08.338Z,100393.22
2022-09-20T14:54:11.604Z,100391.88
2022-09-20T14:57:16.588Z,100395.38
2022-09-20T15:00:19.524Z,100390.56
2022-09-20T15:03:31.031Z,100393.19
2022-09-20T15:06:34.964Z,100387.41
2022-09-20T15:09:37.411Z,100390.78
2022-09-20T15:12:42.265Z,100392.53
2022-09-20T15:15:44.499Z,100393.22
2022-09-20T15:18:47.147Z,100402.75
2022-09-20T15:21:51.661Z,100407.38
2022-09-20T15:24:54.093Z,100407.28
2022-09-20T15:27:57.852Z,100411.47
2022-09-20T15:31:00.402Z,100422.06
2022-09-20T15:34:08.254Z,100420.63
2022-09-20T15:37:10.577Z,100425.00
2022-09-20T15:40:12.816Z,100429.97
2022-09-20T15:43:18.122Z,100446.09
2022-09-20T15:46:22.037Z,100439.44
2022-09-20T15:49:25.446Z,100444.34
2022-09-20T15:52:34.416Z,100441.75
2022-09-20T15:55:38.953Z,100452.59
2022-09-20T15:58:43.915Z,100440.91
2022-09-20T16:01:48.228Z,100454.63
2022-09-20T16:04:54.812Z,100455.84
2022-09-20T16:07:57.988Z,100445.94
2022-09-20T16:11:00.727Z,100442.53
2022-09-20T16:14:02.749Z,100449.50
2022-09-20T16:17:06.563Z,100448.97
2022-09-20T16:20:08.950Z,100441.72
2022-09-20T16:23:16.532Z,100453.09
2022-09-20T16:26:19.726Z,100450.56
2022-09-20T16:29:22.411Z,100464.69
2022-09-20T16:32:24.404Z,100453.72
2022-09-20T16:35:26.695Z,100461.81
2022-09-20T16:38:28.724Z,100449.41
2022-09-20T16:41:32.422Z,100460.28
2022-09-20T16:44:35.576Z,100459.03
2022-09-20T16:47:41.140Z,100463.56
2022-09-20T16:50:48.756Z,100461.50
2022-09-20T16:53:56.429Z,100462.22
2022-09-20T16:57:01.422Z,100450.22
2022-09-20T17:00:05.446Z,100466.75
2022-09-20T17:03:09.896Z,100463.87
2022-09-20T17:06:12.353Z,100457.47
2022-09-20T17:09:15.337Z,100452.50
2022-09-20T17:12:22.104Z,100449.19
2022-09-20T17:15:24.511Z,100457.63
2022-09-20T17:18:31.220Z,100452.00
2022-09-20T17:21:37.365Z,100457.31
2022-09-20T17:24:39.681Z,100464.72
2022-09-20T17:27:43.159Z,100470.50
2022-09-20T17:30:53.725Z,100466.81
2022-09-20T17:33:59.976Z,100470.94
2022-09-20T17:37:03.438Z,100474.41
2022-09-20T17:40:05.806Z,100474.19
2022-09-20T17:43:08.203Z,100478.81
2022-09-20T17:46:13.135Z,100486.19
2022-09-20T17:49:18.145Z,100480.09
2022-09-20T17:52:20.394Z,100496.44
2022-09-20T17:55:23.675Z,100496.78
2022-09-20T17:58:26.245Z,100503.00
2022-09-20T18:01:29.258Z,100501.28
2022-09-20T18:04:32.445Z,100502.28
2022-09-20T18:07:34.434Z,100498.63
2022-09-20T18:10:36.775Z,100495.72
2022-09-20T18:13:38.823Z,100503.22
2022-09-20T18:16:43.139Z,100513.34
2022-09-20T18:19:45.139Z,100520.38
2022-09-20T18:22:49.763Z,100517.94
2022-09-20T18:26:12.546Z,100522.53
2022-09-20T18:29:17.829Z,100531.03
2022-09-20T18:32:19.909Z,100535.16
2022-09-20T18:35:22.939Z,100528.69
2022-09-20T18:38:24.930Z,100523.38
2022-09-20T18:41:28.608Z,100528.00
2022-09-20T18:44:32.319Z,100527.03
2022-09-20T18:47:34.619Z,100527.72
2022-09-20T18:50:36.651Z,100530.69
2022-09-20T18:53:39.026Z,100544.72
2022-09-20T18:56:42.190Z,100532.72
2022-09-20T18:59:54.082Z,100539.72
2022-09-20T19:03:22.760Z,100540.09
2022-09-20T19:06:30.588Z,100539.59
2022-09-20T19:09:37.258Z,100544.88
2022-09-20T19:12:39.620Z,100536.94
2022-09-20T19:15:48.790Z,100542.31
2022-09-20T19:19:02.495Z,100544.63
2022-09-20T19:22:18.874Z,100550.31
2022-09-20T19:25:40.828Z,100542.25
2022-09-20T19:28:44.966Z,100538.56
2022-09-20T19:31:56.141Z,100535.19
2022-09-20T19:35:01.955Z,100539.09
2022-09-20T19:38:15.508Z,100536.69
2022-09-20T19:41:20.806Z,100544.47
2022-09-20T19:44:41.775Z,100550.31
2022-09-20T19:48:00.182Z,100556.66
2022-09-20T19:51:04.325Z,100564.94
2022-09-20T19:54:06.810Z,100544.34
2022-09-20T19:57:16.207Z,100551.00
2022-09-20T20:00:19.911Z,100563.16
2022-09-20T20:03:30.127Z,100560.75
2022-09-20T20:06:53.809Z,100570.81
2022-09-20T20:09:59.618Z,100566.00
2022-09-20T20:13:26.821Z,100566.66
2022-09-20T20:16:44.762Z,100575.25
2022-09-20T20:19:54.221Z,100578.34
2022-09-20T20:23:05.015Z,100582.72
2022-09-20T20:26:17.581Z,100579.28
2022-09-20T20:29:30.659Z,100592.63
2022-09-20T20:32:32.868Z,100594.25
2022-09-20T20:35:37.492Z,100599.75
2022-09-20T20:38:49.928Z,100600.41
2022-09-20T20:41:53.735Z,100597.16
2022-09-20T20:44:58.173Z,100604.97
2022-09-20T20:48:00.777Z,100596.22
2022-09-20T20:51:09.689Z,100593.81
2022-09-20T20:54:14.769Z,100604.69
2022-09-20T20:57:19.028Z,100607.31
2022-09-20T21:00:21.429Z,100622.56
2022-09-20T21:03:26.273Z,100610.41
2022-09-20T21:06:30.171Z,100614.62
2022-09-20T21:09:32.210Z,100616.06
2022-09-20T21:12:34.535Z,100612.38
2022-09-20T21:15:36.589Z,100616.78
2022-09-20T21:18:39.931Z,100613.19
2022-09-20T21:21:43.700Z,100621.00
2022-09-20T21:24:46.925Z,100620.66
2022-09-20T21:27:49.477Z,100627.97
2022-09-20T21:30:59.485Z,100626.34
2022-09-20T21:34:06.010Z,100623.91
2022-09-20T21:37:09.580Z,100623.91
2022-09-20T21:40:17.831Z,100627.00
2022-09-20T21:44:05.644Z,100628.62
2022-09-20T21:54:36.837Z,100634.66
2022-09-20T21:57:44.813Z,100629.31
2022-09-20T22:04:29.236Z,100639.06
2022-09-20T22:14:50.735Z,100638.06
2022-09-20T22:18:10.818Z,100644.25
2022-09-20T22:21:16.057Z,100651.22
2022-09-20T22:24:22.708Z,100645.56
2022-09-20T22:27:26.044Z,100647.00
2022-09-20T22:30:30.007Z,100643.94
2022-09-20T22:33:36.115Z,100661.59
2022-09-20T22:36:40.504Z,100647.81
2022-09-20T22:39:43.964Z,100643.13
2022-09-20T22:42:46.388Z,100659.50
2022-09-20T22:45:48.618Z,100652.69
2022-09-20T22:48:51.376Z,100647.84
2022-09-20T22:51:53.642Z,100650.47
2022-09-20T22:54:56.311Z,100648.50
2022-09-20T22:58:01.390Z,100643.97
2022-09-20T23:01:05.597Z,100649.16
2022-09-20T23:04:09.719Z,100650.47
2022-09-20T23:07:12.285Z,100649.16
2022-09-20T23:10:14.389Z,100653.87
2022-09-20T23:13:16.877Z,100652.56
2022-09-20T23:16:21.689Z,100652.06
2022-09-20T23:19:24.230Z,100652.75
2022-09-20T23:22:26.402Z,100649.81
2022-09-20T23:25:29.579Z,100648.03
2022-09-20T23:28:33.596Z,100658.91
2022-09-20T23:31:37.088Z,100659.56
2022-09-20T23:34:39.187Z,100641.88
2022-09-20T23:37:41.513Z,100653.22
2022-09-20T23:40:43.696Z,100658.25
2022-09-20T23:43:46.175Z,100654.69
2022-09-20T23:46:48.573Z,100661.66
2022-09-20T23:49:53.383Z,100662.31
2022-09-20T23:52:55.588Z,100666.69
2022-09-20T23:55:58.055Z,100657.59
2022-09-20T23:59:00.169Z,100665.53
